sensor_id;sensor_type;location;lat;lon;timestamp;P1;durP1;ratioP1;P2;durP2;ratioP2
19219;SDS011;9744;49.364;7.484;2023-04-25T00:03:29;23.33;;;13.90;;
19219;SDS011;9744;49.364;7.484;2023-04-25T00:05:58;25.33;;;13.65;;
19219;SDS011;9744;49.364;7.484;2023-04-25T00:08:28;22.52;;;12.98;;
19219;SDS011;9744;49.364;7.484;2023-04-25T00:10:55;25.33;;;14.60;;
19219;SDS011;9744;49.364;7.484;2023-04-25T00:13:23;21.73;;;13.55;;
19219;SDS011;9744;49.364;7.484;2023-04-25T00:15:50;22.45;;;14.55;;
19219;SDS011;9744;49.364;7.484;2023-04-25T00:18:18;20.30;;;11.88;;
19219;SDS011;9744;49.364;7.484;2023-04-25T00:20:47;21.92;;;13.57;;
19219;SDS011;9744;49.364;7.484;2023-04-25T00:23:15;20.88;;;12.60;;
19219;SDS011;9744;49.364;7.484;2023-04-25T00:25:43;23.70;;;15.30;;
19219;SDS011;9744;49.364;7.484;2023-04-25T00:28:11;22.80;;;14.05;;
19219;SDS011;9744;49.364;7.484;2023-04-25T00:30:38;19.33;;;13.20;;
19219;SDS011;9744;49.364;7.484;2023-04-25T00:33:06;19.95;;;13.35;;
19219;SDS011;9744;49.364;7.484;2023-04-25T00:35:33;21.17;;;14.18;;
19219;SDS011;9744;49.364;7.484;2023-04-25T00:38:02;23.15;;;14.02;;
19219;SDS011;9744;49.364;7.484;2023-04-25T00:40:29;20.55;;;12.82;;
19219;SDS011;9744;49.364;7.484;2023-04-25T00:42:56;19.45;;;13.32;;
19219;SDS011;9744;49.364;7.484;2023-04-25T00:45:24;20.40;;;13.07;;
19219;SDS011;9744;49.364;7.484;2023-04-25T00:47:54;22.90;;;14.57;;
19219;SDS011;9744;49.364;7.484;2023-04-25T00:50:22;21.10;;;14.32;;
19219;SDS011;9744;49.364;7.484;2023-04-25T00:52:49;22.10;;;14.73;;
19219;SDS011;9744;49.364;7.484;2023-04-25T00:55:18;22.98;;;15.90;;
19219;SDS011;9744;49.364;7.484;2023-04-25T00:57:46;28.27;;;15.50;;
19219;SDS011;9744;49.364;7.484;2023-04-25T01:00:14;24.33;;;14.93;;
19219;SDS011;9744;49.364;7.484;2023-04-25T01:02:43;24.08;;;15.80;;
19219;SDS011;9744;49.364;7.484;2023-04-25T01:05:11;26.33;;;15.18;;
19219;SDS011;9744;49.364;7.484;2023-04-25T01:07:38;22.60;;;14.45;;
19219;SDS011;9744;49.364;7.484;2023-04-25T01:10:06;22.48;;;14.95;;
19219;SDS011;9744;49.364;7.484;2023-04-25T01:12:36;23.60;;;15.20;;
19219;SDS011;9744;49.364;7.484;2023-04-25T01:15:03;23.00;;;14.68;;
19219;SDS011;9744;49.364;7.484;2023-04-25T01:17:31;22.65;;;14.35;;
19219;SDS011;9744;49.364;7.484;2023-04-25T01:20:01;19.92;;;12.68;;
19219;SDS011;9744;49.364;7.484;2023-04-25T01:22:32;23.05;;;14.45;;
19219;SDS011;9744;49.364;7.484;2023-04-25T01:24:59;29.33;;;15.93;;
19219;SDS011;9744;49.364;7.484;2023-04-25T01:27:27;29.48;;;16.85;;
19219;SDS011;9744;49.364;7.484;2023-04-25T01:29:55;31.02;;;16.85;;
19219;SDS011;9744;49.364;7.484;2023-04-25T01:32:23;28.92;;;16.88;;
19219;SDS011;9744;49.364;7.484;2023-04-25T01:34:51;28.08;;;16.00;;
19219;SDS011;9744;49.364;7.484;2023-04-25T01:37:19;27.75;;;16.17;;
19219;SDS011;9744;49.364;7.484;2023-04-25T01:39:47;32.08;;;16.73;;
19219;SDS011;9744;49.364;7.484;2023-04-25T01:42:15;29.17;;;16.38;;
19219;SDS011;9744;49.364;7.484;2023-04-25T01:44:43;27.48;;;15.45;;
19219;SDS011;9744;49.364;7.484;2023-04-25T01:47:16;24.60;;;14.60;;
19219;SDS011;9744;49.364;7.484;2023-04-25T01:49:44;26.05;;;15.93;;
19219;SDS011;9744;49.364;7.484;2023-04-25T01:52:11;26.13;;;15.57;;
19219;SDS011;9744;49.364;7.484;2023-04-25T01:54:38;25.25;;;15.40;;
19219;SDS011;9744;49.364;7.484;2023-04-25T01:57:11;27.83;;;15.70;;
19219;SDS011;9744;49.364;7.484;2023-04-25T01:59:40;23.95;;;14.00;;
19219;SDS011;9744;49.364;7.484;2023-04-25T02:02:29;23.45;;;14.45;;
19219;SDS011;9744;49.364;7.484;2023-04-25T02:04:56;23.08;;;15.23;;
19219;SDS011;9744;49.364;7.484;2023-04-25T02:07:26;25.55;;;15.52;;
19219;SDS011;9744;49.364;7.484;2023-04-25T02:09:53;24.83;;;15.45;;
19219;SDS011;9744;49.364;7.484;2023-04-25T02:12:23;28.77;;;16.30;;
19219;SDS011;9744;49.364;7.484;2023-04-25T02:17:43;30.73;;;18.85;;
19219;SDS011;9744;49.364;7.484;2023-04-25T02:20:11;34.40;;;19.50;;
19219;SDS011;9744;49.364;7.484;2023-04-25T02:22:38;32.30;;;19.67;;
19219;SDS011;9744;49.364;7.484;2023-04-25T02:25:06;34.13;;;19.08;;
19219;SDS011;9744;49.364;7.484;2023-04-25T02:27:36;35.83;;;20.65;;
19219;SDS011;9744;49.364;7.484;2023-04-25T02:30:04;24.95;;;15.55;;
19219;SDS011;9744;49.364;7.484;2023-04-25T02:32:32;26.98;;;16.10;;
19219;SDS011;9744;49.364;7.484;2023-04-25T02:35:01;26.23;;;17.63;;
19219;SDS011;9744;49.364;7.484;2023-04-25T02:37:29;29.63;;;18.10;;
19219;SDS011;9744;49.364;7.484;2023-04-25T02:39:56;18.30;;;12.45;;
19219;SDS011;9744;49.364;7.484;2023-04-25T02:42:25;24.25;;;14.85;;
19219;SDS011;9744;49.364;7.484;2023-04-25T02:44:54;28.38;;;17.58;;
19219;SDS011;9744;49.364;7.484;2023-04-25T02:47:21;23.58;;;15.93;;
19219;SDS011;9744;49.364;7.484;2023-04-25T02:49:49;24.10;;;15.90;;
19219;SDS011;9744;49.364;7.484;2023-04-25T02:52:16;27.35;;;17.58;;
19219;SDS011;9744;49.364;7.484;2023-04-25T02:54:48;27.92;;;17.80;;
19219;SDS011;9744;49.364;7.484;2023-04-25T02:57:16;29.48;;;17.80;;
19219;SDS011;9744;49.364;7.484;2023-04-25T02:59:43;31.23;;;18.10;;
19219;SDS011;9744;49.364;7.484;2023-04-25T03:02:12;27.85;;;18.83;;
19219;SDS011;9744;49.364;7.484;2023-04-25T03:04:39;30.98;;;18.13;;
19219;SDS011;9744;49.364;7.484;2023-04-25T03:07:07;31.70;;;19.42;;
19219;SDS011;9744;49.364;7.484;2023-04-25T03:09:34;35.70;;;20.92;;
19219;SDS011;9744;49.364;7.484;2023-04-25T03:12:02;33.67;;;20.80;;
19219;SDS011;9744;49.364;7.484;2023-04-25T03:14:32;27.92;;;17.83;;
19219;SDS011;9744;49.364;7.484;2023-04-25T03:17:03;31.42;;;20.33;;
19219;SDS011;9744;49.364;7.484;2023-04-25T03:19:32;28.00;;;18.88;;
19219;SDS011;9744;49.364;7.484;2023-04-25T03:21:59;34.53;;;20.30;;
19219;SDS011;9744;49.364;7.484;2023-04-25T03:24:27;26.80;;;18.30;;
19219;SDS011;9744;49.364;7.484;2023-04-25T03:26:55;34.00;;;21.00;;
19219;SDS011;9744;49.364;7.484;2023-04-25T03:29:22;32.25;;;20.10;;
19219;SDS011;9744;49.364;7.484;2023-04-25T03:31:52;23.42;;;15.80;;
19219;SDS011;9744;49.364;7.484;2023-04-25T03:34:19;21.58;;;15.13;;
19219;SDS011;9744;49.364;7.484;2023-04-25T03:36:48;24.83;;;17.13;;
19219;SDS011;9744;49.364;7.484;2023-04-25T03:39:16;22.42;;;14.45;;
19219;SDS011;9744;49.364;7.484;2023-04-25T03:41:47;22.88;;;14.98;;
19219;SDS011;9744;49.364;7.484;2023-04-25T03:44:16;25.23;;;16.98;;
19219;SDS011;9744;49.364;7.484;2023-04-25T03:46:44;25.10;;;15.27;;
19219;SDS011;9744;49.364;7.484;2023-04-25T03:49:11;20.60;;;13.68;;
19219;SDS011;9744;49.364;7.484;2023-04-25T03:51:59;21.85;;;13.02;;
19219;SDS011;9744;49.364;7.484;2023-04-25T03:54:29;21.88;;;14.23;;
19219;SDS011;9744;49.364;7.484;2023-04-25T03:57:04;20.40;;;14.05;;
19219;SDS011;9744;49.364;7.484;2023-04-25T03:59:35;24.17;;;16.17;;
19219;SDS011;9744;49.364;7.484;2023-04-25T04:02:02;87.78;;;47.03;;
19219;SDS011;9744;49.364;7.484;2023-04-25T04:04:32;45.08;;;25.08;;
19219;SDS011;9744;49.364;7.484;2023-04-25T04:07:01;65.25;;;34.75;;
19219;SDS011;9744;49.364;7.484;2023-04-25T04:09:32;64.10;;;34.28;;
19219;SDS011;9744;49.364;7.484;2023-04-25T04:12:04;80.22;;;40.00;;
19219;SDS011;9744;49.364;7.484;2023-04-25T04:14:32;39.85;;;22.25;;
19219;SDS011;9744;49.364;7.484;2023-04-25T04:16:59;23.80;;;14.88;;
19219;SDS011;9744;49.364;7.484;2023-04-25T04:19:27;23.63;;;15.07;;
19219;SDS011;9744;49.364;7.484;2023-04-25T04:22:24;43.58;;;24.58;;
19219;SDS011;9744;49.364;7.484;2023-04-25T04:24:54;33.70;;;19.50;;
19219;SDS011;9744;49.364;7.484;2023-04-25T04:27:42;30.85;;;17.80;;
19219;SDS011;9744;49.364;7.484;2023-04-25T04:30:36;26.85;;;17.20;;
19219;SDS011;9744;49.364;7.484;2023-04-25T04:33:06;23.55;;;15.75;;
19219;SDS011;9744;49.364;7.484;2023-04-25T04:38:13;23.08;;;15.32;;
19219;SDS011;9744;49.364;7.484;2023-04-25T04:40:41;25.92;;;17.40;;
19219;SDS011;9744;49.364;7.484;2023-04-25T04:43:16;28.73;;;18.85;;
19219;SDS011;9744;49.364;7.484;2023-04-25T04:46:09;36.85;;;21.63;;
19219;SDS011;9744;49.364;7.484;2023-04-25T04:48:53;38.35;;;21.00;;
19219;SDS011;9744;49.364;7.484;2023-04-25T04:52:00;45.33;;;23.70;;
19219;SDS011;9744;49.364;7.484;2023-04-25T04:54:52;57.20;;;25.30;;
19219;SDS011;9744;49.364;7.484;2023-04-25T04:57:32;109.30;;;24.48;;
19219;SDS011;9744;49.364;7.484;2023-04-25T05:00:20;43.05;;;21.75;;
19219;SDS011;9744;49.364;7.484;2023-04-25T05:02:47;83.88;;;22.13;;
19219;SDS011;9744;49.364;7.484;2023-04-25T05:05:33;212.57;;;24.73;;
19219;SDS011;9744;49.364;7.484;2023-04-25T05:08:18;48.45;;;22.48;;
19219;SDS011;9744;49.364;7.484;2023-04-25T05:11:13;205.52;;;26.45;;
19219;SDS011;9744;49.364;7.484;2023-04-25T05:13:59;37.45;;;21.83;;
19219;SDS011;9744;49.364;7.484;2023-04-25T05:16:45;41.50;;;21.40;;
19219;SDS011;9744;49.364;7.484;2023-04-25T05:19:31;41.53;;;21.05;;
19219;SDS011;9744;49.364;7.484;2023-04-25T05:22:19;40.63;;;22.35;;
19219;SDS011;9744;49.364;7.484;2023-04-25T05:25:05;48.33;;;22.60;;
19219;SDS011;9744;49.364;7.484;2023-04-25T05:28:06;43.78;;;22.83;;
19219;SDS011;9744;49.364;7.484;2023-04-25T05:30:44;39.80;;;23.08;;
19219;SDS011;9744;49.364;7.484;2023-04-25T05:33:18;36.35;;;20.40;;
19219;SDS011;9744;49.364;7.484;2023-04-25T05:35:45;36.28;;;19.88;;
19219;SDS011;9744;49.364;7.484;2023-04-25T05:38:13;43.70;;;22.88;;
19219;SDS011;9744;49.364;7.484;2023-04-25T05:41:04;36.70;;;21.70;;
19219;SDS011;9744;49.364;7.484;2023-04-25T05:43:43;26.45;;;15.57;;
19219;SDS011;9744;49.364;7.484;2023-04-25T05:46:36;26.17;;;16.60;;
19219;SDS011;9744;49.364;7.484;2023-04-25T05:49:26;22.05;;;14.00;;
19219;SDS011;9744;49.364;7.484;2023-04-25T05:52:03;18.42;;;12.15;;
19219;SDS011;9744;49.364;7.484;2023-04-25T05:54:33;20.38;;;12.88;;
19219;SDS011;9744;49.364;7.484;2023-04-25T05:57:00;21.70;;;13.93;;
19219;SDS011;9744;49.364;7.484;2023-04-25T05:59:29;18.30;;;12.90;;
19219;SDS011;9744;49.364;7.484;2023-04-25T06:01:57;17.23;;;12.15;;
19219;SDS011;9744;49.364;7.484;2023-04-25T06:04:25;18.55;;;11.88;;
19219;SDS011;9744;49.364;7.484;2023-04-25T06:06:53;14.93;;;10.68;;
19219;SDS011;9744;49.364;7.484;2023-04-25T06:09:21;16.00;;;11.35;;
19219;SDS011;9744;49.364;7.484;2023-04-25T06:11:48;17.88;;;13.13;;
19219;SDS011;9744;49.364;7.484;2023-04-25T06:14:16;15.35;;;10.93;;
19219;SDS011;9744;49.364;7.484;2023-04-25T06:16:49;15.02;;;10.00;;
19219;SDS011;9744;49.364;7.484;2023-04-25T06:19:16;12.30;;;9.20;;
19219;SDS011;9744;49.364;7.484;2023-04-25T06:21:43;11.52;;;8.32;;
19219;SDS011;9744;49.364;7.484;2023-04-25T06:24:11;12.43;;;8.85;;
19219;SDS011;9744;49.364;7.484;2023-04-25T06:26:38;12.13;;;8.70;;
19219;SDS011;9744;49.364;7.484;2023-04-25T06:29:06;11.13;;;8.55;;
19219;SDS011;9744;49.364;7.484;2023-04-25T06:31:33;12.55;;;8.75;;
19219;SDS011;9744;49.364;7.484;2023-04-25T06:34:02;11.85;;;8.27;;
19219;SDS011;9744;49.364;7.484;2023-04-25T06:36:32;11.07;;;8.27;;
19219;SDS011;9744;49.364;7.484;2023-04-25T06:39:04;8.40;;;6.40;;
19219;SDS011;9744;49.364;7.484;2023-04-25T06:41:32;8.60;;;6.10;;
19219;SDS011;9744;49.364;7.484;2023-04-25T06:44:04;7.63;;;5.80;;
19219;SDS011;9744;49.364;7.484;2023-04-25T06:46:37;8.52;;;5.43;;
19219;SDS011;9744;49.364;7.484;2023-04-25T06:49:06;7.00;;;5.45;;
19219;SDS011;9744;49.364;7.484;2023-04-25T06:51:33;7.10;;;5.20;;
19219;SDS011;9744;49.364;7.484;2023-04-25T06:54:00;9.45;;;6.07;;
19219;SDS011;9744;49.364;7.484;2023-04-25T06:56:37;12.95;;;8.05;;
19219;SDS011;9744;49.364;7.484;2023-04-25T06:59:10;10.38;;;7.07;;
19219;SDS011;9744;49.364;7.484;2023-04-25T07:01:39;14.38;;;9.55;;
19219;SDS011;9744;49.364;7.484;2023-04-25T07:04:25;15.23;;;10.05;;
19219;SDS011;9744;49.364;7.484;2023-04-25T07:06:55;15.10;;;10.52;;
19219;SDS011;9744;49.364;7.484;2023-04-25T07:09:30;18.40;;;9.65;;
19219;SDS011;9744;49.364;7.484;2023-04-25T07:11:59;12.23;;;9.32;;
19219;SDS011;9744;49.364;7.484;2023-04-25T07:14:27;14.30;;;9.80;;
19219;SDS011;9744;49.364;7.484;2023-04-25T07:16:55;18.63;;;12.70;;
19219;SDS011;9744;49.364;7.484;2023-04-25T07:19:26;16.50;;;11.23;;
19219;SDS011;9744;49.364;7.484;2023-04-25T07:21:57;16.10;;;11.25;;
19219;SDS011;9744;49.364;7.484;2023-04-25T07:24:25;19.33;;;12.90;;
19219;SDS011;9744;49.364;7.484;2023-04-25T07:26:54;21.83;;;14.27;;
19219;SDS011;9744;49.364;7.484;2023-04-25T07:29:44;21.52;;;12.55;;
19219;SDS011;9744;49.364;7.484;2023-04-25T07:32:11;93.72;;;50.97;;
19219;SDS011;9744;49.364;7.484;2023-04-25T07:34:42;41.30;;;23.17;;
19219;SDS011;9744;49.364;7.484;2023-04-25T07:37:10;23.50;;;14.48;;
19219;SDS011;9744;49.364;7.484;2023-04-25T07:39:49;27.17;;;17.38;;
19219;SDS011;9744;49.364;7.484;2023-04-25T07:42:16;26.83;;;16.48;;
19219;SDS011;9744;49.364;7.484;2023-04-25T07:44:43;58.00;;;43.05;;
19219;SDS011;9744;49.364;7.484;2023-04-25T07:47:13;63.35;;;44.05;;
19219;SDS011;9744;49.364;7.484;2023-04-25T07:49:43;42.00;;;30.48;;
19219;SDS011;9744;49.364;7.484;2023-04-25T07:52:11;40.65;;;30.20;;
19219;SDS011;9744;49.364;7.484;2023-04-25T07:54:43;29.17;;;20.27;;
19219;SDS011;9744;49.364;7.484;2023-04-25T07:57:16;22.42;;;15.32;;
19219;SDS011;9744;49.364;7.484;2023-04-25T07:59:45;17.83;;;12.50;;
19219;SDS011;9744;49.364;7.484;2023-04-25T08:02:12;16.88;;;11.35;;
19219;SDS011;9744;49.364;7.484;2023-04-25T08:04:40;18.58;;;11.57;;
19219;SDS011;9744;49.364;7.484;2023-04-25T08:07:10;14.82;;;10.43;;
19219;SDS011;9744;49.364;7.484;2023-04-25T08:09:45;16.48;;;10.57;;
19219;SDS011;9744;49.364;7.484;2023-04-25T08:12:21;13.07;;;9.68;;
19219;SDS011;9744;49.364;7.484;2023-04-25T08:14:48;16.23;;;10.10;;
19219;SDS011;9744;49.364;7.484;2023-04-25T08:17:16;13.30;;;9.63;;
19219;SDS011;9744;49.364;7.484;2023-04-25T08:19:44;15.70;;;10.25;;
19219;SDS011;9744;49.364;7.484;2023-04-25T08:22:22;13.93;;;9.23;;
19219;SDS011;9744;49.364;7.484;2023-04-25T08:24:55;15.23;;;9.07;;
19219;SDS011;9744;49.364;7.484;2023-04-25T08:27:22;11.88;;;7.05;;
19219;SDS011;9744;49.364;7.484;2023-04-25T08:29:50;8.77;;;5.63;;
19219;SDS011;9744;49.364;7.484;2023-04-25T08:32:18;7.43;;;5.63;;
19219;SDS011;9744;49.364;7.484;2023-04-25T08:35:02;11.15;;;5.57;;
19219;SDS011;9744;49.364;7.484;2023-04-25T08:37:32;5.82;;;4.72;;
19219;SDS011;9744;49.364;7.484;2023-04-25T08:40:07;4.95;;;4.45;;
19219;SDS011;9744;49.364;7.484;2023-04-25T08:42:49;8.43;;;4.90;;
19219;SDS011;9744;49.364;7.484;2023-04-25T08:45:18;5.55;;;4.45;;
19219;SDS011;9744;49.364;7.484;2023-04-25T08:47:46;4.72;;;3.60;;
19219;SDS011;9744;49.364;7.484;2023-04-25T08:50:19;4.28;;;3.25;;
19219;SDS011;9744;49.364;7.484;2023-04-25T08:52:49;5.80;;;3.75;;
19219;SDS011;9744;49.364;7.484;2023-04-25T08:55:19;6.07;;;3.63;;
19219;SDS011;9744;49.364;7.484;2023-04-25T08:57:56;7.43;;;3.40;;
19219;SDS011;9744;49.364;7.484;2023-04-25T09:00:26;3.20;;;2.90;;
19219;SDS011;9744;49.364;7.484;2023-04-25T09:02:55;3.97;;;2.75;;
19219;SDS011;9744;49.364;7.484;2023-04-25T09:05:28;4.95;;;2.90;;
19219;SDS011;9744;49.364;7.484;2023-04-25T09:07:57;3.30;;;3.00;;
19219;SDS011;9744;49.364;7.484;2023-04-25T09:10:26;5.88;;;3.30;;
19219;SDS011;9744;49.364;7.484;2023-04-25T09:13:03;4.88;;;3.90;;
19219;SDS011;9744;49.364;7.484;2023-04-25T09:15:47;6.93;;;4.40;;
19219;SDS011;9744;49.364;7.484;2023-04-25T09:18:48;8.10;;;3.80;;
19219;SDS011;9744;49.364;7.484;2023-04-25T09:21:17;8.20;;;4.70;;
19219;SDS011;9744;49.364;7.484;2023-04-25T09:23:50;6.32;;;4.85;;
19219;SDS011;9744;49.364;7.484;2023-04-25T09:26:19;8.05;;;4.88;;
19219;SDS011;9744;49.364;7.484;2023-04-25T09:28:48;7.88;;;4.43;;
19219;SDS011;9744;49.364;7.484;2023-04-25T09:31:21;7.10;;;4.65;;
19219;SDS011;9744;49.364;7.484;2023-04-25T09:33:50;9.85;;;5.30;;
19219;SDS011;9744;49.364;7.484;2023-04-25T09:36:26;10.75;;;5.82;;
19219;SDS011;9744;49.364;7.484;2023-04-25T09:39:21;13.05;;;6.18;;
19219;SDS011;9744;49.364;7.484;2023-04-25T09:41:56;9.13;;;5.63;;
19219;SDS011;9744;49.364;7.484;2023-04-25T09:44:24;8.80;;;5.65;;
19219;SDS011;9744;49.364;7.484;2023-04-25T09:46:54;9.07;;;6.53;;
19219;SDS011;9744;49.364;7.484;2023-04-25T09:49:25;9.75;;;6.63;;
19219;SDS011;9744;49.364;7.484;2023-04-25T09:52:15;11.30;;;6.75;;
19219;SDS011;9744;49.364;7.484;2023-04-25T09:54:58;10.82;;;6.75;;
19219;SDS011;9744;49.364;7.484;2023-04-25T09:57:31;15.25;;;9.45;;
19219;SDS011;9744;49.364;7.484;2023-04-25T10:00:00;13.02;;;7.70;;
19219;SDS011;9744;49.364;7.484;2023-04-25T10:02:39;15.52;;;9.35;;
19219;SDS011;9744;49.364;7.484;2023-04-25T10:05:33;17.42;;;9.23;;
19219;SDS011;9744;49.364;7.484;2023-04-25T10:08:03;14.13;;;8.82;;
19219;SDS011;9744;49.364;7.484;2023-04-25T10:10:33;16.52;;;8.63;;
19219;SDS011;9744;49.364;7.484;2023-04-25T10:13:03;16.25;;;7.90;;
19219;SDS011;9744;49.364;7.484;2023-04-25T10:15:32;16.80;;;9.07;;
19219;SDS011;9744;49.364;7.484;2023-04-25T10:18:01;15.88;;;8.02;;
19219;SDS011;9744;49.364;7.484;2023-04-25T10:20:29;21.65;;;8.65;;
19219;SDS011;9744;49.364;7.484;2023-04-25T10:22:58;13.45;;;7.63;;
19219;SDS011;9744;49.364;7.484;2023-04-25T10:25:30;14.18;;;8.25;;
19219;SDS011;9744;49.364;7.484;2023-04-25T10:28:00;14.02;;;8.98;;
19219;SDS011;9744;49.364;7.484;2023-04-25T10:30:29;14.70;;;8.25;;
19219;SDS011;9744;49.364;7.484;2023-04-25T10:32:56;14.52;;;8.95;;
19219;SDS011;9744;49.364;7.484;2023-04-25T10:35:26;14.55;;;8.18;;
19219;SDS011;9744;49.364;7.484;2023-04-25T10:38:03;17.85;;;9.00;;
19219;SDS011;9744;49.364;7.484;2023-04-25T10:40:31;15.40;;;9.63;;
19219;SDS011;9744;49.364;7.484;2023-04-25T10:46:03;21.65;;;11.30;;
19219;SDS011;9744;49.364;7.484;2023-04-25T10:48:43;16.83;;;9.25;;
19219;SDS011;9744;49.364;7.484;2023-04-25T10:51:15;19.00;;;8.82;;
19219;SDS011;9744;49.364;7.484;2023-04-25T10:53:45;15.48;;;9.05;;
19219;SDS011;9744;49.364;7.484;2023-04-25T10:56:16;14.27;;;7.78;;
19219;SDS011;9744;49.364;7.484;2023-04-25T10:58:47;12.68;;;7.38;;
19219;SDS011;9744;49.364;7.484;2023-04-25T11:01:15;10.02;;;6.55;;
19219;SDS011;9744;49.364;7.484;2023-04-25T11:03:47;10.38;;;7.18;;
19219;SDS011;9744;49.364;7.484;2023-04-25T11:06:20;15.10;;;7.65;;
19219;SDS011;9744;49.364;7.484;2023-04-25T11:08:50;13.10;;;7.13;;
19219;SDS011;9744;49.364;7.484;2023-04-25T11:11:18;13.20;;;6.47;;
19219;SDS011;9744;49.364;7.484;2023-04-25T11:13:48;8.13;;;5.95;;
19219;SDS011;9744;49.364;7.484;2023-04-25T11:16:17;11.00;;;5.72;;
19219;SDS011;9744;49.364;7.484;2023-04-25T11:18:44;9.65;;;5.57;;
19219;SDS011;9744;49.364;7.484;2023-04-25T11:21:11;8.07;;;5.47;;
19219;SDS011;9744;49.364;7.484;2023-04-25T11:23:39;16.50;;;8.88;;
19219;SDS011;9744;49.364;7.484;2023-04-25T11:26:07;15.80;;;8.88;;
19219;SDS011;9744;49.364;7.484;2023-04-25T11:28:36;9.77;;;6.28;;
19219;SDS011;9744;49.364;7.484;2023-04-25T11:31:07;9.68;;;5.82;;
19219;SDS011;9744;49.364;7.484;2023-04-25T11:33:37;7.30;;;5.07;;
19219;SDS011;9744;49.364;7.484;2023-04-25T11:36:06;5.97;;;4.00;;
19219;SDS011;9744;49.364;7.484;2023-04-25T11:38:34;7.32;;;4.53;;
19219;SDS011;9744;49.364;7.484;2023-04-25T11:41:03;11.27;;;5.05;;
19219;SDS011;9744;49.364;7.484;2023-04-25T11:43:46;12.10;;;5.47;;
19219;SDS011;9744;49.364;7.484;2023-04-25T11:53:04;9.38;;;6.55;;
19219;SDS011;9744;49.364;7.484;2023-04-25T11:55:51;8.40;;;5.65;;
19219;SDS011;9744;49.364;7.484;2023-04-25T12:01:52;9.02;;;4.38;;
19219;SDS011;9744;49.364;7.484;2023-04-25T12:08:43;7.07;;;4.70;;
19219;SDS011;9744;49.364;7.484;2023-04-25T12:11:41;9.60;;;4.70;;
19219;SDS011;9744;49.364;7.484;2023-04-25T12:14:27;7.57;;;4.43;;
19219;SDS011;9744;49.364;7.484;2023-04-25T13:14:29;4.50;;;2.15;;
19219;SDS011;9744;49.364;7.484;2023-04-25T13:53:37;4.53;;;2.13;;
19219;SDS011;9744;49.364;7.484;2023-04-25T13:56:17;4.78;;;1.80;;
19219;SDS011;9744;49.364;7.484;2023-04-25T13:59:55;4.47;;;1.80;;
19219;SDS011;9744;49.364;7.484;2023-04-25T14:03:21;5.38;;;2.15;;
19219;SDS011;9744;49.364;7.484;2023-04-25T14:25:02;5.70;;;2.28;;
19219;SDS011;9744;49.364;7.484;2023-04-25T14:27:52;8.10;;;2.33;;
19219;SDS011;9744;49.364;7.484;2023-04-25T14:34:52;8.70;;;2.78;;
19219;SDS011;9744;49.364;7.484;2023-04-25T15:05:36;4.90;;;2.28;;
19219;SDS011;9744;49.364;7.484;2023-04-25T15:11:43;6.63;;;2.20;;
19219;SDS011;9744;49.364;7.484;2023-04-25T15:17:08;8.32;;;2.22;;
19219;SDS011;9744;49.364;7.484;2023-04-25T15:23:28;7.03;;;1.88;;
19219;SDS011;9744;49.364;7.484;2023-04-25T15:38:08;8.50;;;2.88;;
19219;SDS011;9744;49.364;7.484;2023-04-25T15:40:36;8.98;;;2.42;;
19219;SDS011;9744;49.364;7.484;2023-04-25T15:43:04;7.85;;;2.10;;
19219;SDS011;9744;49.364;7.484;2023-04-25T15:45:31;8.23;;;2.05;;
19219;SDS011;9744;49.364;7.484;2023-04-25T15:48:00;5.22;;;2.10;;
19219;SDS011;9744;49.364;7.484;2023-04-25T15:50:27;10.00;;;3.25;;
19219;SDS011;9744;49.364;7.484;2023-04-25T15:52:54;6.03;;;1.95;;
19219;SDS011;9744;49.364;7.484;2023-04-25T15:55:23;3.92;;;1.73;;
19219;SDS011;9744;49.364;7.484;2023-04-25T15:57:52;8.63;;;2.80;;
19219;SDS011;9744;49.364;7.484;2023-04-25T16:00:20;4.13;;;1.90;;
19219;SDS011;9744;49.364;7.484;2023-04-25T16:02:47;8.43;;;3.17;;
19219;SDS011;9744;49.364;7.484;2023-04-25T16:05:15;8.68;;;3.40;;
19219;SDS011;9744;49.364;7.484;2023-04-25T16:07:42;9.68;;;4.72;;
19219;SDS011;9744;49.364;7.484;2023-04-25T16:10:11;10.02;;;3.58;;
19219;SDS011;9744;49.364;7.484;2023-04-25T16:12:40;8.43;;;2.83;;
19219;SDS011;9744;49.364;7.484;2023-04-25T16:15:07;7.22;;;2.95;;
19219;SDS011;9744;49.364;7.484;2023-04-25T16:17:36;4.57;;;2.00;;
19219;SDS011;9744;49.364;7.484;2023-04-25T16:20:04;6.18;;;2.33;;
19219;SDS011;9744;49.364;7.484;2023-04-25T16:22:35;5.65;;;2.30;;
19219;SDS011;9744;49.364;7.484;2023-04-25T16:25:03;7.63;;;3.28;;
19219;SDS011;9744;49.364;7.484;2023-04-25T16:27:31;11.52;;;4.70;;
19219;SDS011;9744;49.364;7.484;2023-04-25T16:30:01;10.32;;;4.28;;
19219;SDS011;9744;49.364;7.484;2023-04-25T16:32:30;9.30;;;3.72;;
19219;SDS011;9744;49.364;7.484;2023-04-25T16:34:57;9.57;;;3.10;;
19219;SDS011;9744;49.364;7.484;2023-04-25T16:37:24;6.25;;;3.13;;
19219;SDS011;9744;49.364;7.484;2023-04-25T16:39:52;9.32;;;3.40;;
19219;SDS011;9744;49.364;7.484;2023-04-25T16:42:19;7.80;;;2.92;;
19219;SDS011;9744;49.364;7.484;2023-04-25T16:44:46;6.93;;;3.25;;
19219;SDS011;9744;49.364;7.484;2023-04-25T16:47:15;5.47;;;2.35;;
19219;SDS011;9744;49.364;7.484;2023-04-25T16:49:42;6.05;;;2.53;;
19219;SDS011;9744;49.364;7.484;2023-04-25T16:52:10;6.90;;;2.75;;
19219;SDS011;9744;49.364;7.484;2023-04-25T16:54:38;5.82;;;2.28;;
19219;SDS011;9744;49.364;7.484;2023-04-25T16:57:05;7.53;;;2.70;;
19219;SDS011;9744;49.364;7.484;2023-04-25T16:59:35;8.63;;;2.50;;
19219;SDS011;9744;49.364;7.484;2023-04-25T17:02:04;6.03;;;2.03;;
19219;SDS011;9744;49.364;7.484;2023-04-25T17:04:33;9.95;;;2.95;;
19219;SDS011;9744;49.364;7.484;2023-04-25T17:07:01;5.60;;;2.53;;
19219;SDS011;9744;49.364;7.484;2023-04-25T17:09:28;5.45;;;2.50;;
19219;SDS011;9744;49.364;7.484;2023-04-25T17:11:56;9.68;;;3.10;;
19219;SDS011;9744;49.364;7.484;2023-04-25T17:14:24;6.50;;;2.40;;
19219;SDS011;9744;49.364;7.484;2023-04-25T17:16:52;10.20;;;2.70;;
19219;SDS011;9744;49.364;7.484;2023-04-25T17:19:19;5.20;;;2.35;;
19219;SDS011;9744;49.364;7.484;2023-04-25T17:21:49;4.78;;;2.20;;
19219;SDS011;9744;49.364;7.484;2023-04-25T17:24:16;5.70;;;2.30;;
19219;SDS011;9744;49.364;7.484;2023-04-25T17:26:46;9.18;;;2.28;;
19219;SDS011;9744;49.364;7.484;2023-04-25T17:29:13;8.30;;;2.22;;
19219;SDS011;9744;49.364;7.484;2023-04-25T17:31:40;7.72;;;3.60;;
19219;SDS011;9744;49.364;7.484;2023-04-25T17:34:10;23.05;;;13.95;;
19219;SDS011;9744;49.364;7.484;2023-04-25T17:36:42;92.95;;;51.97;;
19219;SDS011;9744;49.364;7.484;2023-04-25T17:39:11;72.88;;;41.28;;
19219;SDS011;9744;49.364;7.484;2023-04-25T17:41:41;28.98;;;16.77;;
19219;SDS011;9744;49.364;7.484;2023-04-25T17:44:08;26.33;;;14.85;;
19219;SDS011;9744;49.364;7.484;2023-04-25T17:46:36;13.27;;;7.13;;
19219;SDS011;9744;49.364;7.484;2023-04-25T17:49:03;14.77;;;6.07;;
19219;SDS011;9744;49.364;7.484;2023-04-25T17:51:30;7.95;;;4.25;;
19219;SDS011;9744;49.364;7.484;2023-04-25T17:53:58;7.05;;;3.38;;
19219;SDS011;9744;49.364;7.484;2023-04-25T17:56:26;4.03;;;2.67;;
19219;SDS011;9744;49.364;7.484;2023-04-25T17:58:56;8.43;;;4.25;;
19219;SDS011;9744;49.364;7.484;2023-04-25T18:01:24;42.13;;;14.73;;
19219;SDS011;9744;49.364;7.484;2023-04-25T18:03:51;85.80;;;25.45;;
19219;SDS011;9744;49.364;7.484;2023-04-25T18:06:18;109.53;;;38.20;;
19219;SDS011;9744;49.364;7.484;2023-04-25T18:08:46;130.85;;;46.80;;
19219;SDS011;9744;49.364;7.484;2023-04-25T18:11:13;67.20;;;25.25;;
19219;SDS011;9744;49.364;7.484;2023-04-25T18:13:42;48.50;;;18.95;;
19219;SDS011;9744;49.364;7.484;2023-04-25T18:16:09;33.45;;;15.80;;
19219;SDS011;9744;49.364;7.484;2023-04-25T18:18:37;40.78;;;21.70;;
19219;SDS011;9744;49.364;7.484;2023-04-25T18:21:07;29.55;;;15.25;;
19219;SDS011;9744;49.364;7.484;2023-04-25T18:23:34;22.52;;;11.57;;
19219;SDS011;9744;49.364;7.484;2023-04-25T18:26:02;16.92;;;8.50;;